sensor_id;sensor_type;location;lat;lon;timestamp;temperature;humidity
67901;DHT22;54700;51.796;10.956;2023-12-22T00:02:20;5.00;81.70
67901;DHT22;54700;51.796;10.956;2023-12-22T00:04:48;5.10;79.50
67901;DHT22;54700;51.796;10.956;2023-12-22T00:07:18;5.20;80.40
67901;DHT22;54700;51.796;10.956;2023-12-22T00:09:46;5.20;80.60
67901;DHT22;54700;51.796;10.956;2023-12-22T00:12:13;5.20;80.70
67901;DHT22;54700;51.796;10.956;2023-12-22T00:14:41;5.20;78.60
67901;DHT22;54700;51.796;10.956;2023-12-22T00:17:08;5.20;80.50
67901;DHT22;54700;51.796;10.956;2023-12-22T00:19:35;5.20;83.10
67901;DHT22;54700;51.796;10.956;2023-12-22T00:22:05;5.10;85.70
67901;DHT22;54700;51.796;10.956;2023-12-22T00:24:32;5.00;87.40
67901;DHT22;54700;51.796;10.956;2023-12-22T00:27:00;4.90;89.40
67901;DHT22;54700;51.796;10.956;2023-12-22T00:29:31;4.90;89.40
67901;DHT22;54700;51.796;10.956;2023-12-22T00:57:23;5.00;82.90
67901;DHT22;54700;51.796;10.956;2023-12-22T00:59:50;5.00;83.20
67901;DHT22;54700;51.796;10.956;2023-12-22T01:02:17;5.00;82.10
67901;DHT22;54700;51.796;10.956;2023-12-22T01:04:45;5.00;84.10
67901;DHT22;54700;51.796;10.956;2023-12-22T01:07:12;4.90;84.00
67901;DHT22;54700;51.796;10.956;2023-12-22T01:09:39;4.90;84.90
67901;DHT22;54700;51.796;10.956;2023-12-22T01:12:09;4.80;90.60
67901;DHT22;54700;51.796;10.956;2023-12-22T01:14:40;4.60;93.20
67901;DHT22;54700;51.796;10.956;2023-12-22T01:17:10;4.40;94.30
67901;DHT22;54700;51.796;10.956;2023-12-22T01:19:37;4.30;94.30
67901;DHT22;54700;51.796;10.956;2023-12-22T01:22:04;4.20;94.00
67901;DHT22;54700;51.796;10.956;2023-12-22T01:24:31;4.20;94.00
67901;DHT22;54700;51.796;10.956;2023-12-22T01:26:58;4.20;93.60
67901;DHT22;54700;51.796;10.956;2023-12-22T01:29:27;4.20;93.10
67901;DHT22;54700;51.796;10.956;2023-12-22T01:31:56;4.30;92.70
67901;DHT22;54700;51.796;10.956;2023-12-22T01:34:25;4.30;91.90
67901;DHT22;54700;51.796;10.956;2023-12-22T01:36:54;4.40;91.60
67901;DHT22;54700;51.796;10.956;2023-12-22T01:39:21;4.40;90.70
67901;DHT22;54700;51.796;10.956;2023-12-22T01:41:48;4.50;90.10
67901;DHT22;54700;51.796;10.956;2023-12-22T01:44:15;4.50;90.00
67901;DHT22;54700;51.796;10.956;2023-12-22T01:46:45;4.50;90.00
67901;DHT22;54700;51.796;10.956;2023-12-22T01:49:26;4.60;89.30
67901;DHT22;54700;51.796;10.956;2023-12-22T01:51:55;4.60;89.50
67901;DHT22;54700;51.796;10.956;2023-12-22T01:54:28;4.60;88.50
67901;DHT22;54700;51.796;10.956;2023-12-22T01:57:03;4.50;87.30
67901;DHT22;54700;51.796;10.956;2023-12-22T01:59:32;4.50;87.20
67901;DHT22;54700;51.796;10.956;2023-12-22T02:02:07;4.50;87.30
67901;DHT22;54700;51.796;10.956;2023-12-22T02:04:40;4.50;86.20
67901;DHT22;54700;51.796;10.956;2023-12-22T02:07:09;4.60;84.10
67901;DHT22;54700;51.796;10.956;2023-12-22T02:09:38;4.60;84.70
67901;DHT22;54700;51.796;10.956;2023-12-22T02:12:05;4.60;84.60
67901;DHT22;54700;51.796;10.956;2023-12-22T02:14:32;4.60;84.40
67901;DHT22;54700;51.796;10.956;2023-12-22T02:17:09;4.70;84.50
67901;DHT22;54700;51.796;10.956;2023-12-22T02:19:43;4.70;84.50
67901;DHT22;54700;51.796;10.956;2023-12-22T02:22:12;4.70;86.40
67901;DHT22;54700;51.796;10.956;2023-12-22T02:24:51;4.70;85.60
67901;DHT22;54700;51.796;10.956;2023-12-22T02:27:26;4.80;85.50
67901;DHT22;54700;51.796;10.956;2023-12-22T02:30:05;4.70;86.30
67901;DHT22;54700;51.796;10.956;2023-12-22T02:32:39;4.70;85.40
67901;DHT22;54700;51.796;10.956;2023-12-22T02:35:13;4.70;84.80
67901;DHT22;54700;51.796;10.956;2023-12-22T02:37:43;4.70;85.10
67901;DHT22;54700;51.796;10.956;2023-12-22T02:40:15;4.70;86.30
67901;DHT22;54700;51.796;10.956;2023-12-22T02:42:43;4.80;87.10
67901;DHT22;54700;51.796;10.956;2023-12-22T02:45:12;4.70;88.70
67901;DHT22;54700;51.796;10.956;2023-12-22T02:47:42;4.70;90.10
67901;DHT22;54700;51.796;10.956;2023-12-22T02:50:21;4.70;90.60
67901;DHT22;54700;51.796;10.956;2023-12-22T02:52:50;4.70;90.60
67901;DHT22;54700;51.796;10.956;2023-12-22T02:55:19;4.60;90.30
67901;DHT22;54700;51.796;10.956;2023-12-22T02:57:46;4.60;90.50
67901;DHT22;54700;51.796;10.956;2023-12-22T03:00:13;4.60;90.30
67901;DHT22;54700;51.796;10.956;2023-12-22T03:02:41;4.60;88.10
67901;DHT22;54700;51.796;10.956;2023-12-22T03:05:09;4.60;87.90
67901;DHT22;54700;51.796;10.956;2023-12-22T03:07:36;4.60;87.30
67901;DHT22;54700;51.796;10.956;2023-12-22T03:10:05;4.60;87.80
67901;DHT22;54700;51.796;10.956;2023-12-22T03:12:34;4.60;87.20
67901;DHT22;54700;51.796;10.956;2023-12-22T03:15:01;4.60;87.90
67901;DHT22;54700;51.796;10.956;2023-12-22T03:17:28;4.50;89.20
67901;DHT22;54700;51.796;10.956;2023-12-22T03:19:58;4.50;89.70
67901;DHT22;54700;51.796;10.956;2023-12-22T03:22:25;4.50;90.10
67901;DHT22;54700;51.796;10.956;2023-12-22T03:24:54;4.50;90.60
67901;DHT22;54700;51.796;10.956;2023-12-22T03:27:21;4.50;91.30
67901;DHT22;54700;51.796;10.956;2023-12-22T03:29:55;4.40;91.70
67901;DHT22;54700;51.796;10.956;2023-12-22T03:32:23;4.40;92.00
67901;DHT22;54700;51.796;10.956;2023-12-22T03:34:50;4.40;91.90
67901;DHT22;54700;51.796;10.956;2023-12-22T03:37:19;4.40;91.90
67901;DHT22;54700;51.796;10.956;2023-12-22T03:39:46;4.30;91.00
67901;DHT22;54700;51.796;10.956;2023-12-22T03:42:13;4.30;91.30
67901;DHT22;54700;51.796;10.956;2023-12-22T04:03:31;4.40;90.80
67901;DHT22;54700;51.796;10.956;2023-12-22T04:05:58;4.30;90.80
67901;DHT22;54700;51.796;10.956;2023-12-22T04:08:28;4.30;90.40
67901;DHT22;54700;51.796;10.956;2023-12-22T04:10:55;4.30;90.40
67901;DHT22;54700;51.796;10.956;2023-12-22T04:13:23;4.30;87.50
67901;DHT22;54700;51.796;10.956;2023-12-22T04:15:53;4.30;87.80
67901;DHT22;54700;51.796;10.956;2023-12-22T04:18:20;4.40;86.70
67901;DHT22;54700;51.796;10.956;2023-12-22T04:20:49;4.40;85.40
67901;DHT22;54700;51.796;10.956;2023-12-22T04:23:19;4.50;84.10
67901;DHT22;54700;51.796;10.956;2023-12-22T04:25:46;4.60;81.90
67901;DHT22;54700;51.796;10.956;2023-12-22T04:28:12;4.60;83.10
67901;DHT22;54700;51.796;10.956;2023-12-22T04:30:39;4.60;82.20
67901;DHT22;54700;51.796;10.956;2023-12-22T04:33:06;4.60;80.90
67901;DHT22;54700;51.796;10.956;2023-12-22T04:35:33;4.70;80.90
67901;DHT22;54700;51.796;10.956;2023-12-22T04:38:02;4.70;81.30
67901;DHT22;54700;51.796;10.956;2023-12-22T04:40:33;4.60;80.40
67901;DHT22;54700;51.796;10.956;2023-12-22T04:43:01;4.60;80.60
67901;DHT22;54700;51.796;10.956;2023-12-22T04:45:28;4.70;79.30
67901;DHT22;54700;51.796;10.956;2023-12-22T04:47:57;4.60;80.00
67901;DHT22;54700;51.796;10.956;2023-12-22T04:50:25;4.60;80.70
67901;DHT22;54700;51.796;10.956;2023-12-22T04:52:52;4.60;80.70
67901;DHT22;54700;51.796;10.956;2023-12-22T04:55:23;4.60;81.00
67901;DHT22;54700;51.796;10.956;2023-12-22T04:57:50;4.60;81.30
67901;DHT22;54700;51.796;10.956;2023-12-22T05:00:18;4.60;81.90
67901;DHT22;54700;51.796;10.956;2023-12-22T05:02:45;4.60;84.50
67901;DHT22;54700;51.796;10.956;2023-12-22T05:05:12;4.50;87.90
67901;DHT22;54700;51.796;10.956;2023-12-22T05:07:39;4.50;86.90
67901;DHT22;54700;51.796;10.956;2023-12-22T05:10:06;4.40;85.70
67901;DHT22;54700;51.796;10.956;2023-12-22T05:12:35;4.40;86.00
67901;DHT22;54700;51.796;10.956;2023-12-22T05:15:03;4.40;83.20
67901;DHT22;54700;51.796;10.956;2023-12-22T05:17:31;4.50;83.40
67901;DHT22;54700;51.796;10.956;2023-12-22T05:19:59;4.60;82.30
67901;DHT22;54700;51.796;10.956;2023-12-22T05:22:26;4.60;81.40
67901;DHT22;54700;51.796;10.956;2023-12-22T05:24:55;4.70;81.10
67901;DHT22;54700;51.796;10.956;2023-12-22T05:27:22;4.70;82.00
67901;DHT22;54700;51.796;10.956;2023-12-22T05:29:51;4.70;83.00
67901;DHT22;54700;51.796;10.956;2023-12-22T05:32:26;4.60;84.20
67901;DHT22;54700;51.796;10.956;2023-12-22T05:34:53;4.60;82.80
67901;DHT22;54700;51.796;10.956;2023-12-22T05:37:21;4.60;80.40
67901;DHT22;54700;51.796;10.956;2023-12-22T05:39:49;4.60;79.10
67901;DHT22;54700;51.796;10.956;2023-12-22T05:42:16;4.70;77.70
67901;DHT22;54700;51.796;10.956;2023-12-22T05:44:43;4.70;76.10
67901;DHT22;54700;51.796;10.956;2023-12-22T05:47:16;4.80;74.70
67901;DHT22;54700;51.796;10.956;2023-12-22T05:49:43;4.90;74.80
67901;DHT22;54700;51.796;10.956;2023-12-22T05:52:12;4.80;75.70
67901;DHT22;54700;51.796;10.956;2023-12-22T05:54:39;4.90;73.50
67901;DHT22;54700;51.796;10.956;2023-12-22T05:57:06;4.90;73.60
67901;DHT22;54700;51.796;10.956;2023-12-22T05:59:33;4.90;72.80
67901;DHT22;54700;51.796;10.956;2023-12-22T06:02:01;4.90;73.30
67901;DHT22;54700;51.796;10.956;2023-12-22T06:04:31;4.90;73.50
67901;DHT22;54700;51.796;10.956;2023-12-22T06:06:58;4.90;73.30
67901;DHT22;54700;51.796;10.956;2023-12-22T06:09:25;4.90;72.40
67901;DHT22;54700;51.796;10.956;2023-12-22T06:11:53;4.90;71.60
67901;DHT22;54700;51.796;10.956;2023-12-22T06:14:20;4.90;72.00
67901;DHT22;54700;51.796;10.956;2023-12-22T06:16:47;4.90;72.50
67901;DHT22;54700;51.796;10.956;2023-12-22T06:19:16;4.90;75.70
67901;DHT22;54700;51.796;10.956;2023-12-22T06:21:44;4.80;79.60
67901;DHT22;54700;51.796;10.956;2023-12-22T06:24:11;4.70;84.50
67901;DHT22;54700;51.796;10.956;2023-12-22T06:26:38;4.50;87.90
67901;DHT22;54700;51.796;10.956;2023-12-22T06:29:05;4.40;88.50
67901;DHT22;54700;51.796;10.956;2023-12-22T06:31:31;4.30;88.40
67901;DHT22;54700;51.796;10.956;2023-12-22T06:33:58;4.30;85.50
67901;DHT22;54700;51.796;10.956;2023-12-22T06:36:27;4.30;84.00
67901;DHT22;54700;51.796;10.956;2023-12-22T06:39:01;4.30;82.90
67901;DHT22;54700;51.796;10.956;2023-12-22T06:41:29;4.40;79.10
67901;DHT22;54700;51.796;10.956;2023-12-22T06:43:58;4.50;79.40
67901;DHT22;54700;51.796;10.956;2023-12-22T06:46:25;4.60;76.40
67901;DHT22;54700;51.796;10.956;2023-12-22T06:48:53;4.60;74.50
67901;DHT22;54700;51.796;10.956;2023-12-22T06:51:21;4.70;75.40
67901;DHT22;54700;51.796;10.956;2023-12-22T06:53:49;4.70;75.50
67901;DHT22;54700;51.796;10.956;2023-12-22T06:56:18;4.70;75.80
67901;DHT22;54700;51.796;10.956;2023-12-22T06:58:47;4.70;75.90
67901;DHT22;54700;51.796;10.956;2023-12-22T07:01:19;4.70;75.50
67901;DHT22;54700;51.796;10.956;2023-12-22T07:03:47;4.70;76.10
67901;DHT22;54700;51.796;10.956;2023-12-22T07:06:14;4.70;76.90
67901;DHT22;54700;51.796;10.956;2023-12-22T07:08:41;4.70;77.50
67901;DHT22;54700;51.796;10.956;2023-12-22T07:11:21;4.70;77.50
67901;DHT22;54700;51.796;10.956;2023-12-22T07:13:48;4.70;79.90
67901;DHT22;54700;51.796;10.956;2023-12-22T07:16:17;4.60;80.60
67901;DHT22;54700;51.796;10.956;2023-12-22T07:18:48;4.60;80.90
67901;DHT22;54700;51.796;10.956;2023-12-22T07:21:16;4.60;82.70
67901;DHT22;54700;51.796;10.956;2023-12-22T07:23:44;4.50;87.80
67901;DHT22;54700;51.796;10.956;2023-12-22T07:26:13;4.40;91.30
67901;DHT22;54700;51.796;10.956;2023-12-22T07:28:41;4.10;92.90
67901;DHT22;54700;51.796;10.956;2023-12-22T07:31:08;3.90;93.50
67901;DHT22;54700;51.796;10.956;2023-12-22T07:33:35;3.70;92.80
67901;DHT22;54700;51.796;10.956;2023-12-22T07:36:06;3.50;94.30
67901;DHT22;54700;51.796;10.956;2023-12-22T07:38:38;3.30;97.10
67901;DHT22;54700;51.796;10.956;2023-12-22T07:41:06;3.00;98.40
67901;DHT22;54700;51.796;10.956;2023-12-22T07:43:34;2.90;98.20
67901;DHT22;54700;51.796;10.956;2023-12-22T07:46:05;2.80;99.00
67901;DHT22;54700;51.796;10.956;2023-12-22T07:48:37;2.80;99.80
67901;DHT22;54700;51.796;10.956;2023-12-22T07:51:06;2.80;99.90
67901;DHT22;54700;51.796;10.956;2023-12-22T07:53:33;2.80;99.90
67901;DHT22;54700;51.796;10.956;2023-12-22T07:56:00;2.90;99.70
67901;DHT22;54700;51.796;10.956;2023-12-22T07:58:30;2.90;99.90
67901;DHT22;54700;51.796;10.956;2023-12-22T08:01:07;3.00;99.80
67901;DHT22;54700;51.796;10.956;2023-12-22T08:03:34;3.10;99.90
67901;DHT22;54700;51.796;10.956;2023-12-22T08:06:04;3.10;99.90
67901;DHT22;54700;51.796;10.956;2023-12-22T08:08:31;3.10;99.90
67901;DHT22;54700;51.796;10.956;2023-12-22T08:10:58;2.90;99.90
67901;DHT22;54700;51.796;10.956;2023-12-22T08:13:28;2.90;99.90
67901;DHT22;54700;51.796;10.956;2023-12-22T08:15:58;2.80;99.90
67901;DHT22;54700;51.796;10.956;2023-12-22T08:18:30;2.80;99.90
67901;DHT22;54700;51.796;10.956;2023-12-22T08:20:58;2.70;99.90
67901;DHT22;54700;51.796;10.956;2023-12-22T08:23:25;2.70;99.90
67901;DHT22;54700;51.796;10.956;2023-12-22T08:25:52;2.70;99.90
67901;DHT22;54700;51.796;10.956;2023-12-22T08:28:19;2.60;99.90
67901;DHT22;54700;51.796;10.956;2023-12-22T08:30:46;2.30;99.90
67901;DHT22;54700;51.796;10.956;2023-12-22T08:33:17;2.10;99.90
67901;DHT22;54700;51.796;10.956;2023-12-22T08:35:49;1.90;99.90
67901;DHT22;54700;51.796;10.956;2023-12-22T08:38:17;1.60;99.90
67901;DHT22;54700;51.796;10.956;2023-12-22T08:53:43;1.30;99.90
67901;DHT22;54700;51.796;10.956;2023-12-22T08:56:12;1.40;99.90
67901;DHT22;54700;51.796;10.956;2023-12-22T08:58:44;1.50;99.90
67901;DHT22;54700;51.796;10.956;2023-12-22T09:01:15;1.60;99.90
67901;DHT22;54700;51.796;10.956;2023-12-22T09:03:44;1.90;99.90
67901;DHT22;54700;51.796;10.956;2023-12-22T09:06:14;2.10;99.90
67901;DHT22;54700;51.796;10.956;2023-12-22T09:08:42;2.40;99.90
67901;DHT22;54700;51.796;10.956;2023-12-22T09:11:10;2.70;99.90
67901;DHT22;54700;51.796;10.956;2023-12-22T09:13:38;2.90;99.90
67901;DHT22;54700;51.796;10.956;2023-12-22T09:16:07;3.10;99.90
67901;DHT22;54700;51.796;10.956;2023-12-22T09:18:35;3.30;99.90
67901;DHT22;54700;51.796;10.956;2023-12-22T09:21:03;3.40;99.90
67901;DHT22;54700;51.796;10.956;2023-12-22T09:23:30;3.50;99.90
67901;DHT22;54700;51.796;10.956;2023-12-22T09:26:00;3.60;99.70
67901;DHT22;54700;51.796;10.956;2023-12-22T09:28:31;3.70;99.90
67901;DHT22;54700;51.796;10.956;2023-12-22T09:31:01;3.80;98.30
67901;DHT22;54700;51.796;10.956;2023-12-22T09:33:34;3.80;97.70
67901;DHT22;54700;51.796;10.956;2023-12-22T09:36:02;3.90;96.60
67901;DHT22;54700;51.796;10.956;2023-12-22T09:38:30;4.00;96.80
67901;DHT22;54700;51.796;10.956;2023-12-22T09:40:58;4.00;95.90
67901;DHT22;54700;51.796;10.956;2023-12-22T09:43:29;4.20;93.30
67901;DHT22;54700;51.796;10.956;2023-12-22T09:46:07;4.20;95.20
67901;DHT22;54700;51.796;10.956;2023-12-22T09:51:34;4.20;95.70
67901;DHT22;54700;51.796;10.956;2023-12-22T09:54:17;4.10;97.20
67901;DHT22;54700;51.796;10.956;2023-12-22T09:56:53;4.10;98.20
67901;DHT22;54700;51.796;10.956;2023-12-22T09:59:25;4.10;97.20
67901;DHT22;54700;51.796;10.956;2023-12-22T10:01:56;4.20;97.50
67901;DHT22;54700;51.796;10.956;2023-12-22T10:04:26;4.30;95.90
67901;DHT22;54700;51.796;10.956;2023-12-22T10:07:01;4.40;94.50
67901;DHT22;54700;51.796;10.956;2023-12-22T10:09:29;4.50;93.60
67901;DHT22;54700;51.796;10.956;2023-12-22T10:11:57;4.60;92.30
67901;DHT22;54700;51.796;10.956;2023-12-22T10:14:28;4.80;90.90
67901;DHT22;54700;51.796;10.956;2023-12-22T10:17:01;4.90;90.90
67901;DHT22;54700;51.796;10.956;2023-12-22T10:19:28;4.90;89.80
67901;DHT22;54700;51.796;10.956;2023-12-22T10:21:55;5.00;89.50
67901;DHT22;54700;51.796;10.956;2023-12-22T10:24:36;5.00;89.00
67901;DHT22;54700;51.796;10.956;2023-12-22T10:27:08;5.00;87.20
67901;DHT22;54700;51.796;10.956;2023-12-22T10:29:39;4.90;86.10
67901;DHT22;54700;51.796;10.956;2023-12-22T10:32:09;4.90;87.50
67901;DHT22;54700;51.796;10.956;2023-12-22T10:34:36;4.90;88.90
67901;DHT22;54700;51.796;10.956;2023-12-22T10:37:07;4.90;86.90
67901;DHT22;54700;51.796;10.956;2023-12-22T10:39:40;4.90;87.10
67901;DHT22;54700;51.796;10.956;2023-12-22T10:42:26;4.90;87.80
67901;DHT22;54700;51.796;10.956;2023-12-22T10:45:10;4.90;87.20
67901;DHT22;54700;51.796;10.956;2023-12-22T10:47:57;4.90;87.10
67901;DHT22;54700;51.796;10.956;2023-12-22T10:50:25;4.90;87.70
67901;DHT22;54700;51.796;10.956;2023-12-22T10:52:54;4.90;89.40
67901;DHT22;54700;51.796;10.956;2023-12-22T10:55:21;4.90;90.00
67901;DHT22;54700;51.796;10.956;2023-12-22T10:57:56;4.90;91.40
67901;DHT22;54700;51.796;10.956;2023-12-22T11:00:40;4.90;91.90
67901;DHT22;54700;51.796;10.956;2023-12-22T11:03:21;4.90;92.50
67901;DHT22;54700;51.796;10.956;2023-12-22T11:06:00;4.90;94.20
67901;DHT22;54700;51.796;10.956;2023-12-22T11:08:33;4.90;93.40
67901;DHT22;54700;51.796;10.956;2023-12-22T11:11:12;4.90;91.50
67901;DHT22;54700;51.796;10.956;2023-12-22T11:13:47;5.00;91.40
67901;DHT22;54700;51.796;10.956;2023-12-22T11:16:16;5.10;91.30
67901;DHT22;54700;51.796;10.956;2023-12-22T11:18:47;5.10;92.00
67901;DHT22;54700;51.796;10.956;2023-12-22T11:21:15;5.10;92.60
67901;DHT22;54700;51.796;10.956;2023-12-22T11:23:42;5.10;92.90
67901;DHT22;54700;51.796;10.956;2023-12-22T11:26:15;5.10;92.20
67901;DHT22;54700;51.796;10.956;2023-12-22T11:28:45;5.10;92.40
67901;DHT22;54700;51.796;10.956;2023-12-22T11:31:20;5.20;93.10
67901;DHT22;54700;51.796;10.956;2023-12-22T11:33:54;5.20;93.50
67901;DHT22;54700;51.796;10.956;2023-12-22T11:36:24;5.10;95.10
67901;DHT22;54700;51.796;10.956;2023-12-22T11:38:53;5.00;95.90
67901;DHT22;54700;51.796;10.956;2023-12-22T11:41:21;5.00;96.90
67901;DHT22;54700;51.796;10.956;2023-12-22T11:44:10;4.90;97.80
67901;DHT22;54700;51.796;10.956;2023-12-22T11:46:42;5.00;95.10
67901;DHT22;54700;51.796;10.956;2023-12-22T11:49:13;5.10;93.50
67901;DHT22;54700;51.796;10.956;2023-12-22T11:51:41;5.20;94.40
67901;DHT22;54700;51.796;10.956;2023-12-22T11:57:34;5.40;91.60
67901;DHT22;54700;51.796;10.956;2023-12-22T12:00:06;5.50;91.40
67901;DHT22;54700;51.796;10.956;2023-12-22T12:02:39;5.60;90.30
67901;DHT22;54700;51.796;10.956;2023-12-22T12:05:09;5.70;89.90
67901;DHT22;54700;51.796;10.956;2023-12-22T12:07:44;5.70;90.20
67901;DHT22;54700;51.796;10.956;2023-12-22T12:13:21;5.90;88.60
67901;DHT22;54700;51.796;10.956;2023-12-22T12:15:49;6.00;86.20
67901;DHT22;54700;51.796;10.956;2023-12-22T12:18:47;6.00;87.80
67901;DHT22;54700;51.796;10.956;2023-12-22T12:21:14;6.00;86.90
67901;DHT22;54700;51.796;10.956;2023-12-22T12:23:44;6.10;84.80
67901;DHT22;54700;51.796;10.956;2023-12-22T12:26:16;6.10;88.70
67901;DHT22;54700;51.796;10.956;2023-12-22T12:28:45;6.10;86.30
67901;DHT22;54700;51.796;10.956;2023-12-22T12:31:16;6.10;85.40
67901;DHT22;54700;51.796;10.956;2023-12-22T12:33:52;6.10;88.10
67901;DHT22;54700;51.796;10.956;2023-12-22T12:36:27;6.10;85.20
67901;DHT22;54700;51.796;10.956;2023-12-22T12:38:57;6.20;83.30
67901;DHT22;54700;51.796;10.956;2023-12-22T12:41:36;6.20;87.20
67901;DHT22;54700;51.796;10.956;2023-12-22T12:44:07;6.20;84.00
67901;DHT22;54700;51.796;10.956;2023-12-22T12:46:42;6.30;84.20
67901;DHT22;54700;51.796;10.956;2023-12-22T12:49:13;6.30;84.10
67901;DHT22;54700;51.796;10.956;2023-12-22T12:51:43;6.30;82.80
67901;DHT22;54700;51.796;10.956;2023-12-22T12:54:11;6.30;83.40
67901;DHT22;54700;51.796;10.956;2023-12-22T12:56:42;6.30;82.60
67901;DHT22;54700;51.796;10.956;2023-12-22T12:59:10;6.30;85.00
67901;DHT22;54700;51.796;10.956;2023-12-22T13:01:38;6.30;84.60
67901;DHT22;54700;51.796;10.956;2023-12-22T13:04:05;6.30;88.70
67901;DHT22;54700;51.796;10.956;2023-12-22T13:06:34;6.20;90.80
67901;DHT22;54700;51.796;10.956;2023-12-22T13:09:01;6.20;90.30
67901;DHT22;54700;51.796;10.956;2023-12-22T13:11:32;6.10;89.40
67901;DHT22;54700;51.796;10.956;2023-12-22T13:14:00;6.10;89.90
67901;DHT22;54700;51.796;10.956;2023-12-22T13:16:28;6.10;89.90
67901;DHT22;54700;51.796;10.956;2023-12-22T13:18:57;6.10;89.40
67901;DHT22;54700;51.796;10.956;2023-12-22T13:21:25;6.10;89.00
67901;DHT22;54700;51.796;10.956;2023-12-22T13:24:09;6.10;91.00
67901;DHT22;54700;51.796;10.956;2023-12-22T13:27:00;6.10;90.60
67901;DHT22;54700;51.796;10.956;2023-12-22T13:29:41;6.10;88.00
67901;DHT22;54700;51.796;10.956;2023-12-22T13:32:19;6.10;87.80
67901;DHT22;54700;51.796;10.956;2023-12-22T13:34:52;6.10;87.80
67901;DHT22;54700;51.796;10.956;2023-12-22T13:37:21;6.20;86.00
67901;DHT22;54700;51.796;10.956;2023-12-22T13:40:03;6.20;88.50
67901;DHT22;54700;51.796;10.956;2023-12-22T13:42:38;6.20;90.60
67901;DHT22;54700;51.796;10.956;2023-12-22T13:45:19;6.20;87.10
67901;DHT22;54700;51.796;10.956;2023-12-22T13:47:50;6.20;88.60
67901;DHT22;54700;51.796;10.956;2023-12-22T13:50:21;6.20;86.70
67901;DHT22;54700;51.796;10.956;2023-12-22T13:52:51;6.20;90.10
67901;DHT22;54700;51.796;10.956;2023-12-22T13:55:20;6.20;87.50
67901;DHT22;54700;51.796;10.956;2023-12-22T13:57:50;6.20;84.90
67901;DHT22;54700;51.796;10.956;2023-12-22T14:00:26;6.20;86.10
67901;DHT22;54700;51.796;10.956;2023-12-22T14:02:55;6.20;84.40
67901;DHT22;54700;51.796;10.956;2023-12-22T14:05:24;6.20;87.10
67901;DHT22;54700;51.796;10.956;2023-12-22T14:07:54;6.20;84.20
67901;DHT22;54700;51.796;10.956;2023-12-22T14:10:29;6.20;85.70
67901;DHT22;54700;51.796;10.956;2023-12-22T14:12:57;6.20;88.40
67901;DHT22;54700;51.796;10.956;2023-12-22T14:15:25;6.20;86.00
67901;DHT22;54700;51.796;10.956;2023-12-22T14:17:55;6.20;86.30
67901;DHT22;54700;51.796;10.956;2023-12-22T14:20:29;6.20;87.90
67901;DHT22;54700;51.796;10.956;2023-12-22T14:22:56;6.10;89.30
67901;DHT22;54700;51.796;10.956;2023-12-22T14:25:24;6.10;90.30
67901;DHT22;54700;51.796;10.956;2023-12-22T14:27:56;6.00;91.00
67901;DHT22;54700;51.796;10.956;2023-12-22T14:30:26;6.00;89.20
67901;DHT22;54700;51.796;10.956;2023-12-22T14:33:00;6.00;89.80
67901;DHT22;54700;51.796;10.956;2023-12-22T14:35:32;6.00;89.60
67901;DHT22;54700;51.796;10.956;2023-12-22T14:38:00;6.00;89.90
67901;DHT22;54700;51.796;10.956;2023-12-22T14:40:28;6.00;90.30
67901;DHT22;54700;51.796;10.956;2023-12-22T14:42:57;5.90;88.60
67901;DHT22;54700;51.796;10.956;2023-12-22T14:45:27;5.90;87.60
67901;DHT22;54700;51.796;10.956;2023-12-22T14:47:57;5.90;90.60
67901;DHT22;54700;51.796;10.956;2023-12-22T14:50:24;5.90;89.80
67901;DHT22;54700;51.796;10.956;2023-12-22T14:52:51;5.90;90.70
67901;DHT22;54700;51.796;10.956;2023-12-22T14:55:24;5.90;88.70
67901;DHT22;54700;51.796;10.956;2023-12-22T14:58:03;5.90;90.30
67901;DHT22;54700;51.796;10.956;2023-12-22T15:00:44;5.90;89.90
67901;DHT22;54700;51.796;10.956;2023-12-22T15:03:12;5.90;90.70
67901;DHT22;54700;51.796;10.956;2023-12-22T15:05:40;5.90;91.30
67901;DHT22;54700;51.796;10.956;2023-12-22T15:08:07;5.80;91.30
67901;DHT22;54700;51.796;10.956;2023-12-22T15:10:37;5.80;92.20
67901;DHT22;54700;51.796;10.956;2023-12-22T15:13:06;5.80;91.40
67901;DHT22;54700;51.796;10.956;2023-12-22T15:15:33;5.80;92.00
67901;DHT22;54700;51.796;10.956;2023-12-22T15:18:03;5.80;92.80
67901;DHT22;54700;51.796;10.956;2023-12-22T15:20:37;5.70;91.40
67901;DHT22;54700;51.796;10.956;2023-12-22T15:23:04;5.80;91.00
67901;DHT22;54700;51.796;10.956;2023-12-22T16:02:42;5.70;93.50
67901;DHT22;54700;51.796;10.956;2023-12-22T16:05:10;5.60;95.30
67901;DHT22;54700;51.796;10.956;2023-12-22T16:07:41;5.50;96.20
67901;DHT22;54700;51.796;10.956;2023-12-22T16:10:08;5.40;97.30
67901;DHT22;54700;51.796;10.956;2023-12-22T16:12:36;5.30;98.30
67901;DHT22;54700;51.796;10.956;2023-12-22T16:15:03;5.10;99.40
67901;DHT22;54700;51.796;10.956;2023-12-22T16:17:31;5.10;99.80
67901;DHT22;54700;51.796;10.956;2023-12-22T16:19:59;5.00;99.90
67901;DHT22;54700;51.796;10.956;2023-12-22T16:22:26;4.90;99.90
67901;DHT22;54700;51.796;10.956;2023-12-22T16:24:53;4.90;99.90
67901;DHT22;54700;51.796;10.956;2023-12-22T16:27:21;4.80;99.90
67901;DHT22;54700;51.796;10.956;2023-12-22T16:29:48;4.80;99.90
67901;DHT22;54700;51.796;10.956;2023-12-22T16:32:14;4.80;99.90
67901;DHT22;54700;51.796;10.956;2023-12-22T16:34:44;4.70;99.90
67901;DHT22;54700;51.796;10.956;2023-12-22T16:37:13;4.70;99.90
67901;DHT22;54700;51.796;10.956;2023-12-22T16:39:47;4.70;99.90
67901;DHT22;54700;51.796;10.956;2023-12-22T16:42:16;4.60;99.90
67901;DHT22;54700;51.796;10.956;2023-12-22T16:44:46;4.60;99.90
67901;DHT22;54700;51.796;10.956;2023-12-22T16:47:17;4.60;99.90
67901;DHT22;54700;51.796;10.956;2023-12-22T16:49:44;4.60;99.90
67901;DHT22;54700;51.796;10.956;2023-12-22T16:52:16;4.60;99.90
67901;DHT22;54700;51.796;10.956;2023-12-22T16:54:43;4.70;99.90
67901;DHT22;54700;51.796;10.956;2023-12-22T16:57:18;4.50;99.90
67901;DHT22;54700;51.796;10.956;2023-12-22T17:00:07;3.80;99.90
67901;DHT22;54700;51.796;10.956;2023-12-22T17:02:45;3.00;99.90
67901;DHT22;54700;51.796;10.956;2023-12-22T17:05:13;2.30;99.90
67901;DHT22;54700;51.796;10.956;2023-12-22T17:07:48;1.90;99.90
67901;DHT22;54700;51.796;10.956;2023-12-22T17:10:15;1.60;99.90
67901;DHT22;54700;51.796;10.956;2023-12-22T17:12:42;1.40;99.90
67901;DHT22;54700;51.796;10.956;2023-12-22T17:15:10;1.40;99.90
67901;DHT22;54700;51.796;10.956;2023-12-22T17:17:37;1.40;99.90
67901;DHT22;54700;51.796;10.956;2023-12-22T17:20:04;1.40;99.90
67901;DHT22;54700;51.796;10.956;2023-12-22T17:22:39;1.50;99.90
67901;DHT22;54700;51.796;10.956;2023-12-22T17:25:19;1.50;99.90
67901;DHT22;54700;51.796;10.956;2023-12-22T17:27:48;1.50;99.90
67901;DHT22;54700;51.796;10.956;2023-12-22T17:30:15;1.60;99.90
67901;DHT22;54700;51.796;10.956;2023-12-22T17:32:47;1.60;99.90